sensor_id;sensor_type;location;lat;lon;timestamp;P1;durP1;ratioP1;P2;durP2;ratioP2
5587;SDS011;2816;49.778;9.986;2022-08-21T00:02:21;6.17;;;4.53;;
5587;SDS011;2816;49.778;9.986;2022-08-21T00:04:50;6.03;;;4.77;;
5587;SDS011;2816;49.778;9.986;2022-08-21T00:07:17;5.37;;;4.67;;
5587;SDS011;2816;49.778;9.986;2022-08-21T00:09:45;9.53;;;4.60;;
5587;SDS011;2816;49.778;9.986;2022-08-21T00:12:13;5.20;;;4.63;;
5587;SDS011;2816;49.778;9.986;2022-08-21T00:14:40;9.33;;;4.77;;
5587;SDS011;2816;49.778;9.986;2022-08-21T00:17:07;13.13;;;4.73;;
5587;SDS011;2816;49.778;9.986;2022-08-21T00:19:34;5.43;;;4.57;;
5587;SDS011;2816;49.778;9.986;2022-08-21T00:22:01;4.70;;;4.30;;
5587;SDS011;2816;49.778;9.986;2022-08-21T00:24:28;10.20;;;4.90;;
5587;SDS011;2816;49.778;9.986;2022-08-21T00:26:55;5.20;;;4.67;;
5587;SDS011;2816;49.778;9.986;2022-08-21T00:29:24;10.40;;;5.10;;
5587;SDS011;2816;49.778;9.986;2022-08-21T00:31:51;6.77;;;4.83;;
5587;SDS011;2816;49.778;9.986;2022-08-21T00:34:18;10.03;;;4.73;;
5587;SDS011;2816;49.778;9.986;2022-08-21T00:36:45;7.97;;;4.87;;
5587;SDS011;2816;49.778;9.986;2022-08-21T00:39:12;5.33;;;4.50;;
5587;SDS011;2816;49.778;9.986;2022-08-21T00:41:39;6.33;;;4.40;;
5587;SDS011;2816;49.778;9.986;2022-08-21T00:44:08;6.90;;;4.27;;
5587;SDS011;2816;49.778;9.986;2022-08-21T00:46:40;5.83;;;4.30;;
5587;SDS011;2816;49.778;9.986;2022-08-21T00:49:08;9.53;;;4.50;;
5587;SDS011;2816;49.778;9.986;2022-08-21T00:51:39;5.97;;;4.67;;
5587;SDS011;2816;49.778;9.986;2022-08-21T00:54:10;6.90;;;4.70;;
5587;SDS011;2816;49.778;9.986;2022-08-21T00:56:37;5.67;;;4.20;;
5587;SDS011;2816;49.778;9.986;2022-08-21T00:59:05;5.20;;;4.70;;
5587;SDS011;2816;49.778;9.986;2022-08-21T01:01:32;5.93;;;4.60;;
5587;SDS011;2816;49.778;9.986;2022-08-21T01:04:00;4.60;;;4.17;;
5587;SDS011;2816;49.778;9.986;2022-08-21T01:06:28;9.13;;;4.60;;
5587;SDS011;2816;49.778;9.986;2022-08-21T01:08:55;7.70;;;4.00;;
5587;SDS011;2816;49.778;9.986;2022-08-21T01:11:22;7.57;;;4.90;;
5587;SDS011;2816;49.778;9.986;2022-08-21T01:13:49;5.17;;;4.60;;
5587;SDS011;2816;49.778;9.986;2022-08-21T01:16:17;8.33;;;4.83;;
5587;SDS011;2816;49.778;9.986;2022-08-21T01:18:47;6.80;;;4.40;;
5587;SDS011;2816;49.778;9.986;2022-08-21T01:21:18;10.30;;;5.00;;
5587;SDS011;2816;49.778;9.986;2022-08-21T01:23:47;10.93;;;4.80;;
5587;SDS011;2816;49.778;9.986;2022-08-21T01:26:16;6.20;;;4.53;;
5587;SDS011;2816;49.778;9.986;2022-08-21T01:28:46;6.80;;;4.60;;
5587;SDS011;2816;49.778;9.986;2022-08-21T01:31:17;9.30;;;4.97;;
5587;SDS011;2816;49.778;9.986;2022-08-21T01:33:48;4.83;;;4.43;;
5587;SDS011;2816;49.778;9.986;2022-08-21T01:36:15;6.33;;;4.27;;
5587;SDS011;2816;49.778;9.986;2022-08-21T01:38:43;7.80;;;4.70;;
5587;SDS011;2816;49.778;9.986;2022-08-21T01:41:12;4.93;;;4.20;;
5587;SDS011;2816;49.778;9.986;2022-08-21T01:43:39;10.80;;;5.10;;
5587;SDS011;2816;49.778;9.986;2022-08-21T01:46:07;10.50;;;4.23;;
5587;SDS011;2816;49.778;9.986;2022-08-21T01:48:35;4.73;;;4.30;;
5587;SDS011;2816;49.778;9.986;2022-08-21T01:51:03;6.30;;;4.13;;
5587;SDS011;2816;49.778;9.986;2022-08-21T01:53:33;4.70;;;4.30;;
5587;SDS011;2816;49.778;9.986;2022-08-21T01:56:02;7.17;;;4.27;;
5587;SDS011;2816;49.778;9.986;2022-08-21T01:58:30;6.10;;;4.20;;
5587;SDS011;2816;49.778;9.986;2022-08-21T02:00:58;4.60;;;4.10;;
5587;SDS011;2816;49.778;9.986;2022-08-21T02:03:26;5.30;;;3.97;;
5587;SDS011;2816;49.778;9.986;2022-08-21T02:05:53;4.80;;;4.20;;
5587;SDS011;2816;49.778;9.986;2022-08-21T02:08:20;4.37;;;3.90;;
5587;SDS011;2816;49.778;9.986;2022-08-21T02:10:50;6.00;;;4.00;;
5587;SDS011;2816;49.778;9.986;2022-08-21T02:13:18;4.83;;;4.20;;
5587;SDS011;2816;49.778;9.986;2022-08-21T02:15:45;4.63;;;4.00;;
5587;SDS011;2816;49.778;9.986;2022-08-21T02:18:12;4.87;;;4.37;;
5587;SDS011;2816;49.778;9.986;2022-08-21T02:20:40;10.30;;;4.20;;
5587;SDS011;2816;49.778;9.986;2022-08-21T02:23:10;4.57;;;4.17;;
5587;SDS011;2816;49.778;9.986;2022-08-21T02:25:37;4.70;;;4.03;;
5587;SDS011;2816;49.778;9.986;2022-08-21T02:28:07;5.53;;;4.80;;
5587;SDS011;2816;49.778;9.986;2022-08-21T02:30:37;6.30;;;4.37;;
5587;SDS011;2816;49.778;9.986;2022-08-21T02:33:06;5.10;;;4.60;;
5587;SDS011;2816;49.778;9.986;2022-08-21T02:35:35;4.17;;;3.83;;
5587;SDS011;2816;49.778;9.986;2022-08-21T02:38:03;4.73;;;4.20;;
5587;SDS011;2816;49.778;9.986;2022-08-21T02:40:32;4.27;;;3.87;;
5587;SDS011;2816;49.778;9.986;2022-08-21T02:43:01;9.83;;;4.07;;
5587;SDS011;2816;49.778;9.986;2022-08-21T02:45:31;4.77;;;4.37;;
5587;SDS011;2816;49.778;9.986;2022-08-21T02:47:59;5.27;;;4.40;;
5587;SDS011;2816;49.778;9.986;2022-08-21T02:50:28;5.10;;;4.60;;
5587;SDS011;2816;49.778;9.986;2022-08-21T02:52:57;5.23;;;4.77;;
5587;SDS011;2816;49.778;9.986;2022-08-21T02:55:26;6.40;;;5.10;;
5587;SDS011;2816;49.778;9.986;2022-08-21T02:57:55;4.90;;;4.50;;
5587;SDS011;2816;49.778;9.986;2022-08-21T03:00:24;5.10;;;4.60;;
5587;SDS011;2816;49.778;9.986;2022-08-21T03:02:53;5.50;;;4.50;;
5587;SDS011;2816;49.778;9.986;2022-08-21T03:05:21;5.33;;;4.87;;
5587;SDS011;2816;49.778;9.986;2022-08-21T03:07:49;5.37;;;4.80;;
5587;SDS011;2816;49.778;9.986;2022-08-21T03:10:18;5.70;;;5.10;;
5587;SDS011;2816;49.778;9.986;2022-08-21T03:12:46;6.67;;;4.90;;
5587;SDS011;2816;49.778;9.986;2022-08-21T03:15:14;6.70;;;4.77;;
5587;SDS011;2816;49.778;9.986;2022-08-21T03:17:43;5.57;;;4.97;;
5587;SDS011;2816;49.778;9.986;2022-08-21T03:20:12;5.30;;;4.80;;
5587;SDS011;2816;49.778;9.986;2022-08-21T03:22:41;6.10;;;4.80;;
5587;SDS011;2816;49.778;9.986;2022-08-21T03:25:08;7.30;;;5.40;;
5587;SDS011;2816;49.778;9.986;2022-08-21T03:27:36;10.50;;;4.90;;
5587;SDS011;2816;49.778;9.986;2022-08-21T03:30:04;5.47;;;4.60;;
5587;SDS011;2816;49.778;9.986;2022-08-21T03:32:33;12.60;;;4.80;;
5587;SDS011;2816;49.778;9.986;2022-08-21T03:35:01;7.43;;;5.27;;
5587;SDS011;2816;49.778;9.986;2022-08-21T03:37:30;6.53;;;5.47;;
5587;SDS011;2816;49.778;9.986;2022-08-21T03:39:57;6.47;;;4.87;;
5587;SDS011;2816;49.778;9.986;2022-08-21T03:42:24;6.93;;;4.70;;
5587;SDS011;2816;49.778;9.986;2022-08-21T03:44:51;5.03;;;4.53;;
5587;SDS011;2816;49.778;9.986;2022-08-21T03:47:18;7.20;;;5.30;;
5587;SDS011;2816;49.778;9.986;2022-08-21T03:49:45;6.83;;;5.50;;
5587;SDS011;2816;49.778;9.986;2022-08-21T03:52:12;7.07;;;5.07;;
5587;SDS011;2816;49.778;9.986;2022-08-21T03:54:40;8.00;;;5.50;;
5587;SDS011;2816;49.778;9.986;2022-08-21T03:57:07;6.27;;;5.10;;
5587;SDS011;2816;49.778;9.986;2022-08-21T03:59:35;8.30;;;4.80;;
5587;SDS011;2816;49.778;9.986;2022-08-21T04:02:04;8.17;;;5.37;;
5587;SDS011;2816;49.778;9.986;2022-08-21T04:04:33;5.17;;;4.77;;
5587;SDS011;2816;49.778;9.986;2022-08-21T04:07:01;5.40;;;4.10;;
5587;SDS011;2816;49.778;9.986;2022-08-21T04:09:28;5.40;;;4.90;;
5587;SDS011;2816;49.778;9.986;2022-08-21T04:11:57;6.33;;;4.90;;
5587;SDS011;2816;49.778;9.986;2022-08-21T04:14:25;7.70;;;4.93;;
5587;SDS011;2816;49.778;9.986;2022-08-21T04:16:52;5.27;;;4.53;;
5587;SDS011;2816;49.778;9.986;2022-08-21T04:19:19;7.23;;;6.00;;
5587;SDS011;2816;49.778;9.986;2022-08-21T04:21:46;5.90;;;5.40;;
5587;SDS011;2816;49.778;9.986;2022-08-21T04:24:14;4.63;;;4.23;;
5587;SDS011;2816;49.778;9.986;2022-08-21T04:26:41;5.40;;;4.87;;
5587;SDS011;2816;49.778;9.986;2022-08-21T04:29:10;6.60;;;4.53;;
5587;SDS011;2816;49.778;9.986;2022-08-21T04:31:37;8.10;;;4.90;;
5587;SDS011;2816;49.778;9.986;2022-08-21T04:34:04;4.90;;;4.50;;
5587;SDS011;2816;49.778;9.986;2022-08-21T04:36:31;4.27;;;3.90;;
5587;SDS011;2816;49.778;9.986;2022-08-21T04:38:58;3.63;;;3.33;;
5587;SDS011;2816;49.778;9.986;2022-08-21T04:41:26;3.93;;;3.63;;
5587;SDS011;2816;49.778;9.986;2022-08-21T04:43:54;3.57;;;3.30;;
5587;SDS011;2816;49.778;9.986;2022-08-21T04:46:22;3.00;;;2.80;;
5587;SDS011;2816;49.778;9.986;2022-08-21T04:48:50;3.03;;;2.83;;
5587;SDS011;2816;49.778;9.986;2022-08-21T04:51:17;3.17;;;2.97;;
5587;SDS011;2816;49.778;9.986;2022-08-21T04:53:50;3.13;;;2.93;;
5587;SDS011;2816;49.778;9.986;2022-08-21T04:56:20;3.50;;;3.20;;
5587;SDS011;2816;49.778;9.986;2022-08-21T04:58:50;3.67;;;3.23;;
5587;SDS011;2816;49.778;9.986;2022-08-21T05:01:18;5.30;;;3.70;;
5587;SDS011;2816;49.778;9.986;2022-08-21T05:03:50;4.03;;;3.73;;
5587;SDS011;2816;49.778;9.986;2022-08-21T05:06:21;3.83;;;3.53;;
5587;SDS011;2816;49.778;9.986;2022-08-21T05:08:50;3.70;;;3.40;;
5587;SDS011;2816;49.778;9.986;2022-08-21T05:11:21;4.33;;;3.57;;
5587;SDS011;2816;49.778;9.986;2022-08-21T05:13:48;5.27;;;3.57;;
5587;SDS011;2816;49.778;9.986;2022-08-21T05:16:16;4.80;;;4.40;;
5587;SDS011;2816;49.778;9.986;2022-08-21T05:18:43;8.77;;;4.77;;
5587;SDS011;2816;49.778;9.986;2022-08-21T05:21:11;7.27;;;6.50;;
5587;SDS011;2816;49.778;9.986;2022-08-21T05:23:38;9.23;;;7.47;;
5587;SDS011;2816;49.778;9.986;2022-08-21T05:26:05;9.50;;;7.60;;
5587;SDS011;2816;49.778;9.986;2022-08-21T05:28:32;8.83;;;7.93;;
5587;SDS011;2816;49.778;9.986;2022-08-21T05:30:59;8.73;;;7.93;;
5587;SDS011;2816;49.778;9.986;2022-08-21T05:33:26;13.27;;;7.10;;
5587;SDS011;2816;49.778;9.986;2022-08-21T05:35:53;8.17;;;7.47;;
5587;SDS011;2816;49.778;9.986;2022-08-21T05:38:23;13.80;;;6.63;;
5587;SDS011;2816;49.778;9.986;2022-08-21T05:40:52;7.67;;;6.10;;
5587;SDS011;2816;49.778;9.986;2022-08-21T05:43:20;7.00;;;6.30;;
5587;SDS011;2816;49.778;9.986;2022-08-21T05:45:47;12.43;;;6.87;;
5587;SDS011;2816;49.778;9.986;2022-08-21T05:48:15;7.07;;;6.47;;
5587;SDS011;2816;49.778;9.986;2022-08-21T05:50:43;14.90;;;6.43;;
5587;SDS011;2816;49.778;9.986;2022-08-21T05:53:12;6.80;;;6.10;;
5587;SDS011;2816;49.778;9.986;2022-08-21T05:55:40;6.63;;;6.00;;
5587;SDS011;2816;49.778;9.986;2022-08-21T05:58:08;7.93;;;7.00;;
5587;SDS011;2816;49.778;9.986;2022-08-21T06:00:35;9.87;;;7.53;;
5587;SDS011;2816;49.778;9.986;2022-08-21T06:03:02;9.93;;;7.20;;
5587;SDS011;2816;49.778;9.986;2022-08-21T06:05:29;13.23;;;7.40;;
5587;SDS011;2816;49.778;9.986;2022-08-21T06:07:56;7.53;;;6.80;;
5587;SDS011;2816;49.778;9.986;2022-08-21T06:10:23;8.63;;;7.80;;
5587;SDS011;2816;49.778;9.986;2022-08-21T06:12:54;7.50;;;6.80;;
5587;SDS011;2816;49.778;9.986;2022-08-21T06:15:21;9.07;;;8.17;;
5587;SDS011;2816;49.778;9.986;2022-08-21T06:17:48;10.20;;;7.37;;
5587;SDS011;2816;49.778;9.986;2022-08-21T06:20:15;11.73;;;8.93;;
5587;SDS011;2816;49.778;9.986;2022-08-21T06:22:42;9.87;;;8.37;;
5587;SDS011;2816;49.778;9.986;2022-08-21T06:25:09;13.30;;;8.70;;
5587;SDS011;2816;49.778;9.986;2022-08-21T06:27:36;14.30;;;9.03;;
5587;SDS011;2816;49.778;9.986;2022-08-21T06:30:05;10.50;;;8.90;;
5587;SDS011;2816;49.778;9.986;2022-08-21T06:32:34;10.43;;;9.20;;
5587;SDS011;2816;49.778;9.986;2022-08-21T06:35:01;10.13;;;8.30;;
5587;SDS011;2816;49.778;9.986;2022-08-21T06:37:29;9.13;;;7.47;;
5587;SDS011;2816;49.778;9.986;2022-08-21T06:39:56;10.43;;;8.40;;
5587;SDS011;2816;49.778;9.986;2022-08-21T06:42:23;9.57;;;7.93;;
5587;SDS011;2816;49.778;9.986;2022-08-21T06:44:50;8.43;;;7.43;;
5587;SDS011;2816;49.778;9.986;2022-08-21T06:47:18;8.63;;;7.73;;
5587;SDS011;2816;49.778;9.986;2022-08-21T06:49:45;9.27;;;7.53;;
5587;SDS011;2816;49.778;9.986;2022-08-21T06:52:12;7.33;;;6.63;;
5587;SDS011;2816;49.778;9.986;2022-08-21T06:54:39;8.73;;;6.23;;
5587;SDS011;2816;49.778;9.986;2022-08-21T06:57:07;9.00;;;6.73;;
5587;SDS011;2816;49.778;9.986;2022-08-21T06:59:34;20.73;;;12.13;;
5587;SDS011;2816;49.778;9.986;2022-08-21T07:02:01;9.80;;;7.67;;
5587;SDS011;2816;49.778;9.986;2022-08-21T07:04:29;8.80;;;7.90;;
5587;SDS011;2816;49.778;9.986;2022-08-21T07:06:56;14.23;;;10.47;;
5587;SDS011;2816;49.778;9.986;2022-08-21T07:09:23;11.83;;;10.50;;
5587;SDS011;2816;49.778;9.986;2022-08-21T07:11:52;10.30;;;7.73;;
5587;SDS011;2816;49.778;9.986;2022-08-21T07:14:21;9.00;;;8.10;;
5587;SDS011;2816;49.778;9.986;2022-08-21T07:16:49;10.10;;;8.37;;
5587;SDS011;2816;49.778;9.986;2022-08-21T07:19:17;11.97;;;8.90;;
5587;SDS011;2816;49.778;9.986;2022-08-21T07:21:45;17.07;;;8.70;;
5587;SDS011;2816;49.778;9.986;2022-08-21T07:24:12;11.23;;;8.10;;
5587;SDS011;2816;49.778;9.986;2022-08-21T07:26:39;11.67;;;8.03;;
5587;SDS011;2816;49.778;9.986;2022-08-21T07:29:07;9.17;;;8.20;;
5587;SDS011;2816;49.778;9.986;2022-08-21T07:31:34;7.70;;;7.00;;
5587;SDS011;2816;49.778;9.986;2022-08-21T07:34:01;10.33;;;8.10;;
5587;SDS011;2816;49.778;9.986;2022-08-21T07:36:28;7.23;;;6.60;;
5587;SDS011;2816;49.778;9.986;2022-08-21T07:38:57;17.37;;;8.00;;
5587;SDS011;2816;49.778;9.986;2022-08-21T07:41:25;8.20;;;6.70;;
5587;SDS011;2816;49.778;9.986;2022-08-21T07:43:54;7.90;;;7.10;;
5587;SDS011;2816;49.778;9.986;2022-08-21T07:46:22;6.77;;;6.00;;
5587;SDS011;2816;49.778;9.986;2022-08-21T07:48:49;7.30;;;6.00;;
5587;SDS011;2816;49.778;9.986;2022-08-21T07:51:17;7.77;;;6.30;;
5587;SDS011;2816;49.778;9.986;2022-08-21T07:53:47;11.10;;;7.73;;
5587;SDS011;2816;49.778;9.986;2022-08-21T07:56:17;10.17;;;7.50;;
5587;SDS011;2816;49.778;9.986;2022-08-21T07:58:45;11.87;;;6.93;;
5587;SDS011;2816;49.778;9.986;2022-08-21T08:01:12;8.97;;;6.10;;
5587;SDS011;2816;49.778;9.986;2022-08-21T08:03:39;9.00;;;7.23;;
5587;SDS011;2816;49.778;9.986;2022-08-21T08:06:06;7.87;;;6.70;;
5587;SDS011;2816;49.778;9.986;2022-08-21T08:08:37;8.43;;;6.23;;
5587;SDS011;2816;49.778;9.986;2022-08-21T08:11:05;8.57;;;6.90;;
5587;SDS011;2816;49.778;9.986;2022-08-21T08:13:39;7.30;;;6.17;;
5587;SDS011;2816;49.778;9.986;2022-08-21T08:16:06;7.97;;;6.97;;
5587;SDS011;2816;49.778;9.986;2022-08-21T08:18:34;6.90;;;5.63;;
5587;SDS011;2816;49.778;9.986;2022-08-21T08:21:01;7.97;;;6.73;;
5587;SDS011;2816;49.778;9.986;2022-08-21T08:23:28;15.60;;;7.60;;
5587;SDS011;2816;49.778;9.986;2022-08-21T08:25:55;9.67;;;7.67;;
5587;SDS011;2816;49.778;9.986;2022-08-21T08:28:22;8.50;;;6.60;;
5587;SDS011;2816;49.778;9.986;2022-08-21T08:30:51;9.90;;;7.00;;
5587;SDS011;2816;49.778;9.986;2022-08-21T08:33:18;6.87;;;5.90;;
5587;SDS011;2816;49.778;9.986;2022-08-21T08:35:46;7.83;;;6.97;;
5587;SDS011;2816;49.778;9.986;2022-08-21T08:38:16;7.83;;;6.50;;
5587;SDS011;2816;49.778;9.986;2022-08-21T08:40:46;6.87;;;6.17;;
5587;SDS011;2816;49.778;9.986;2022-08-21T08:43:18;7.20;;;6.50;;
5587;SDS011;2816;49.778;9.986;2022-08-21T08:45:49;11.20;;;5.93;;
5587;SDS011;2816;49.778;9.986;2022-08-21T08:48:26;6.90;;;6.07;;
5587;SDS011;2816;49.778;9.986;2022-08-21T08:51:06;10.83;;;7.43;;
5587;SDS011;2816;49.778;9.986;2022-08-21T08:53:43;8.90;;;7.57;;
5587;SDS011;2816;49.778;9.986;2022-08-21T08:56:15;6.80;;;6.17;;
5587;SDS011;2816;49.778;9.986;2022-08-21T08:58:48;6.33;;;5.70;;
5587;SDS011;2816;49.778;9.986;2022-08-21T09:01:19;12.63;;;6.63;;
5587;SDS011;2816;49.778;9.986;2022-08-21T09:03:47;5.70;;;5.20;;
5587;SDS011;2816;49.778;9.986;2022-08-21T09:06:19;10.20;;;5.53;;
5587;SDS011;2816;49.778;9.986;2022-08-21T09:09:01;10.87;;;6.00;;
5587;SDS011;2816;49.778;9.986;2022-08-21T09:11:37;10.53;;;5.60;;
5587;SDS011;2816;49.778;9.986;2022-08-21T09:14:21;7.23;;;5.27;;
5587;SDS011;2816;49.778;9.986;2022-08-21T09:16:55;7.77;;;6.33;;
5587;SDS011;2816;49.778;9.986;2022-08-21T09:19:32;7.20;;;5.53;;
5587;SDS011;2816;49.778;9.986;2022-08-21T09:22:13;5.87;;;5.13;;
5587;SDS011;2816;49.778;9.986;2022-08-21T09:24:47;9.13;;;4.67;;
5587;SDS011;2816;49.778;9.986;2022-08-21T09:27:19;5.33;;;4.73;;
5587;SDS011;2816;49.778;9.986;2022-08-21T09:29:48;4.37;;;4.00;;
5587;SDS011;2816;49.778;9.986;2022-08-21T09:32:21;4.93;;;4.43;;
5587;SDS011;2816;49.778;9.986;2022-08-21T09:34:57;6.60;;;5.20;;
5587;SDS011;2816;49.778;9.986;2022-08-21T09:37:26;4.97;;;4.57;;
5587;SDS011;2816;49.778;9.986;2022-08-21T09:39:55;5.50;;;4.90;;
5587;SDS011;2816;49.778;9.986;2022-08-21T09:42:24;5.53;;;4.10;;
5587;SDS011;2816;49.778;9.986;2022-08-21T09:45:10;8.47;;;5.00;;
5587;SDS011;2816;49.778;9.986;2022-08-21T09:47:40;7.83;;;4.97;;
5587;SDS011;2816;49.778;9.986;2022-08-21T09:50:10;4.80;;;3.80;;
5587;SDS011;2816;49.778;9.986;2022-08-21T09:52:43;7.40;;;4.67;;
5587;SDS011;2816;49.778;9.986;2022-08-21T09:55:15;6.30;;;4.20;;
5587;SDS011;2816;49.778;9.986;2022-08-21T09:57:59;6.47;;;4.83;;
5587;SDS011;2816;49.778;9.986;2022-08-21T10:00:28;7.03;;;4.63;;
5587;SDS011;2816;49.778;9.986;2022-08-21T10:03:08;4.13;;;3.73;;
5587;SDS011;2816;49.778;9.986;2022-08-21T10:05:40;5.67;;;3.80;;
5587;SDS011;2816;49.778;9.986;2022-08-21T10:08:18;4.33;;;3.93;;
5587;SDS011;2816;49.778;9.986;2022-08-21T10:10:45;4.27;;;3.80;;
5587;SDS011;2816;49.778;9.986;2022-08-21T10:13:19;7.80;;;4.10;;
5587;SDS011;2816;49.778;9.986;2022-08-21T10:15:53;5.93;;;3.53;;
5587;SDS011;2816;49.778;9.986;2022-08-21T10:18:34;6.57;;;4.03;;
5587;SDS011;2816;49.778;9.986;2022-08-21T10:21:08;3.93;;;3.53;;
5587;SDS011;2816;49.778;9.986;2022-08-21T10:23:44;5.73;;;3.70;;
5587;SDS011;2816;49.778;9.986;2022-08-21T10:26:24;5.33;;;3.90;;
5587;SDS011;2816;49.778;9.986;2022-08-21T10:28:58;5.90;;;4.27;;
5587;SDS011;2816;49.778;9.986;2022-08-21T10:31:31;5.63;;;3.70;;
5587;SDS011;2816;49.778;9.986;2022-08-21T10:34:12;9.63;;;4.23;;
5587;SDS011;2816;49.778;9.986;2022-08-21T10:36:52;5.20;;;3.97;;
5587;SDS011;2816;49.778;9.986;2022-08-21T10:39:29;4.73;;;3.27;;
5587;SDS011;2816;49.778;9.986;2022-08-21T10:42:10;5.87;;;3.50;;
5587;SDS011;2816;49.778;9.986;2022-08-21T10:44:53;6.67;;;3.60;;
5587;SDS011;2816;49.778;9.986;2022-08-21T10:47:35;5.10;;;3.80;;
5587;SDS011;2816;49.778;9.986;2022-08-21T10:50:10;5.67;;;3.33;;
5587;SDS011;2816;49.778;9.986;2022-08-21T10:52:56;3.73;;;3.20;;
5587;SDS011;2816;49.778;9.986;2022-08-21T10:55:35;5.97;;;3.50;;
5587;SDS011;2816;49.778;9.986;2022-08-21T10:58:08;4.27;;;3.27;;
5587;SDS011;2816;49.778;9.986;2022-08-21T11:00:39;5.50;;;3.70;;
5587;SDS011;2816;49.778;9.986;2022-08-21T11:03:13;4.10;;;3.13;;
5587;SDS011;2816;49.778;9.986;2022-08-21T11:05:47;7.03;;;3.53;;
5587;SDS011;2816;49.778;9.986;2022-08-21T11:08:18;5.03;;;3.40;;
5587;SDS011;2816;49.778;9.986;2022-08-21T11:10:50;8.17;;;3.00;;
5587;SDS011;2816;49.778;9.986;2022-08-21T11:13:24;6.37;;;3.07;;
5587;SDS011;2816;49.778;9.986;2022-08-21T11:15:58;5.20;;;3.03;;
5587;SDS011;2816;49.778;9.986;2022-08-21T11:18:32;3.57;;;3.07;;
5587;SDS011;2816;49.778;9.986;2022-08-21T11:21:08;6.80;;;3.60;;
5587;SDS011;2816;49.778;9.986;2022-08-21T11:23:46;4.13;;;3.00;;
5587;SDS011;2816;49.778;9.986;2022-08-21T11:26:22;4.23;;;3.07;;
5587;SDS011;2816;49.778;9.986;2022-08-21T11:28:58;4.30;;;3.20;;
5587;SDS011;2816;49.778;9.986;2022-08-21T11:31:34;5.00;;;3.47;;
5587;SDS011;2816;49.778;9.986;2022-08-21T11:34:17;3.70;;;2.90;;
5587;SDS011;2816;49.778;9.986;2022-08-21T11:36:57;7.37;;;3.30;;
5587;SDS011;2816;49.778;9.986;2022-08-21T11:39:35;6.13;;;3.20;;
5587;SDS011;2816;49.778;9.986;2022-08-21T11:42:13;5.47;;;2.80;;
5587;SDS011;2816;49.778;9.986;2022-08-21T11:44:48;5.03;;;2.93;;
5587;SDS011;2816;49.778;9.986;2022-08-21T11:47:24;4.70;;;2.90;;
5587;SDS011;2816;49.778;9.986;2022-08-21T11:50:02;3.93;;;2.63;;
5587;SDS011;2816;49.778;9.986;2022-08-21T11:52:41;3.80;;;2.90;;
5587;SDS011;2816;49.778;9.986;2022-08-21T11:55:12;3.60;;;3.27;;
5587;SDS011;2816;49.778;9.986;2022-08-21T11:57:46;3.60;;;3.07;;
5587;SDS011;2816;49.778;9.986;2022-08-21T12:00:19;5.50;;;3.07;;
5587;SDS011;2816;49.778;9.986;2022-08-21T12:02:51;4.30;;;2.83;;
5587;SDS011;2816;49.778;9.986;2022-08-21T12:05:25;10.30;;;3.23;;
5587;SDS011;2816;49.778;9.986;2022-08-21T12:08:02;6.13;;;2.63;;
5587;SDS011;2816;49.778;9.986;2022-08-21T12:10:32;4.50;;;3.10;;
5587;SDS011;2816;49.778;9.986;2022-08-21T12:13:09;4.50;;;3.20;;
5587;SDS011;2816;49.778;9.986;2022-08-21T12:15:38;5.00;;;2.90;;
5587;SDS011;2816;49.778;9.986;2022-08-21T12:18:06;3.13;;;2.63;;
5587;SDS011;2816;49.778;9.986;2022-08-21T12:20:56;6.73;;;2.93;;
5587;SDS011;2816;49.778;9.986;2022-08-21T12:23:27;8.00;;;2.93;;
5587;SDS011;2816;49.778;9.986;2022-08-21T12:26:09;6.00;;;3.10;;
5587;SDS011;2816;49.778;9.986;2022-08-21T12:28:44;2.40;;;2.20;;
5587;SDS011;2816;49.778;9.986;2022-08-21T12:31:18;4.17;;;2.80;;
5587;SDS011;2816;49.778;9.986;2022-08-21T12:33:49;3.70;;;2.73;;
5587;SDS011;2816;49.778;9.986;2022-08-21T12:36:21;5.40;;;2.67;;
5587;SDS011;2816;49.778;9.986;2022-08-21T12:38:54;3.87;;;2.90;;
5587;SDS011;2816;49.778;9.986;2022-08-21T12:41:25;4.53;;;3.10;;
5587;SDS011;2816;49.778;9.986;2022-08-21T12:43:57;4.37;;;2.73;;
5587;SDS011;2816;49.778;9.986;2022-08-21T12:46:29;3.23;;;2.70;;
5587;SDS011;2816;49.778;9.986;2022-08-21T12:49:01;6.27;;;2.40;;
5587;SDS011;2816;49.778;9.986;2022-08-21T12:51:36;4.73;;;2.90;;
5587;SDS011;2816;49.778;9.986;2022-08-21T12:54:21;4.47;;;2.67;;
5587;SDS011;2816;49.778;9.986;2022-08-21T12:56:55;5.83;;;2.70;;
5587;SDS011;2816;49.778;9.986;2022-08-21T12:59:23;2.73;;;2.30;;
5587;SDS011;2816;49.778;9.986;2022-08-21T13:01:50;3.80;;;2.67;;
5587;SDS011;2816;49.778;9.986;2022-08-21T13:04:20;4.50;;;3.17;;
5587;SDS011;2816;49.778;9.986;2022-08-21T13:06:52;2.97;;;2.67;;
5587;SDS011;2816;49.778;9.986;2022-08-21T13:09:27;3.77;;;2.80;;
5587;SDS011;2816;49.778;9.986;2022-08-21T13:11:56;3.43;;;2.60;;
5587;SDS011;2816;49.778;9.986;2022-08-21T13:14:27;5.50;;;2.67;;
5587;SDS011;2816;49.778;9.986;2022-08-21T13:16:58;4.23;;;2.50;;
5587;SDS011;2816;49.778;9.986;2022-08-21T13:19:26;4.40;;;2.50;;
5587;SDS011;2816;49.778;9.986;2022-08-21T13:21:55;5.10;;;3.77;;
5587;SDS011;2816;49.778;9.986;2022-08-21T13:24:22;4.47;;;2.80;;
5587;SDS011;2816;49.778;9.986;2022-08-21T13:26:52;4.00;;;2.53;;
5587;SDS011;2816;49.778;9.986;2022-08-21T13:29:21;4.80;;;2.60;;
5587;SDS011;2816;49.778;9.986;2022-08-21T13:31:50;3.73;;;2.50;;
5587;SDS011;2816;49.778;9.986;2022-08-21T13:34:19;4.10;;;2.87;;
5587;SDS011;2816;49.778;9.986;2022-08-21T13:36:50;3.90;;;2.50;;
5587;SDS011;2816;49.778;9.986;2022-08-21T13:39:18;3.57;;;2.83;;
5587;SDS011;2816;49.778;9.986;2022-08-21T13:41:47;5.37;;;2.80;;
5587;SDS011;2816;49.778;9.986;2022-08-21T13:44:19;3.00;;;2.23;;
5587;SDS011;2816;49.778;9.986;2022-08-21T13:46:51;4.00;;;2.60;;
5587;SDS011;2816;49.778;9.986;2022-08-21T13:49:22;4.80;;;2.77;;
5587;SDS011;2816;49.778;9.986;2022-08-21T13:51:55;2.23;;;2.00;;
5587;SDS011;2816;49.778;9.986;2022-08-21T13:54:23;3.70;;;2.60;;
5587;SDS011;2816;49.778;9.986;2022-08-21T13:56:52;4.80;;;2.70;;
5587;SDS011;2816;49.778;9.986;2022-08-21T13:59:25;5.40;;;2.53;;
5587;SDS011;2816;49.778;9.986;2022-08-21T14:01:54;4.27;;;2.67;;
5587;SDS011;2816;49.778;9.986;2022-08-21T14:04:26;3.10;;;2.80;;
5587;SDS011;2816;49.778;9.986;2022-08-21T14:06:59;2.97;;;2.40;;
5587;SDS011;2816;49.778;9.986;2022-08-21T14:09:30;4.20;;;2.83;;
5587;SDS011;2816;49.778;9.986;2022-08-21T14:11:59;4.30;;;2.50;;
5587;SDS011;2816;49.778;9.986;2022-08-21T14:14:31;3.30;;;2.50;;
5587;SDS011;2816;49.778;9.986;2022-08-21T14:17:01;4.43;;;2.70;;
5587;SDS011;2816;49.778;9.986;2022-08-21T14:19:35;3.43;;;2.43;;
5587;SDS011;2816;49.778;9.986;2022-08-21T14:24:49;3.90;;;2.93;;
5587;SDS011;2816;49.778;9.986;2022-08-21T14:27:25;5.00;;;2.80;;
5587;SDS011;2816;49.778;9.986;2022-08-21T14:29:58;3.07;;;2.40;;
5587;SDS011;2816;49.778;9.986;2022-08-21T14:32:28;3.23;;;2.40;;
5587;SDS011;2816;49.778;9.986;2022-08-21T14:35:02;3.00;;;2.33;;
5587;SDS011;2816;49.778;9.986;2022-08-21T14:37:30;6.63;;;2.60;;
5587;SDS011;2816;49.778;9.986;2022-08-21T14:39:57;2.80;;;2.50;;
5587;SDS011;2816;49.778;9.986;2022-08-21T14:42:24;3.60;;;2.50;;
5587;SDS011;2816;49.778;9.986;2022-08-21T14:44:51;3.70;;;2.53;;
5587;SDS011;2816;49.778;9.986;2022-08-21T14:47:22;2.83;;;2.40;;
5587;SDS011;2816;49.778;9.986;2022-08-21T14:49:49;4.27;;;2.43;;
5587;SDS011;2816;49.778;9.986;2022-08-21T14:52:18;3.07;;;2.50;;
5587;SDS011;2816;49.778;9.986;2022-08-21T14:54:47;4.90;;;2.70;;
5587;SDS011;2816;49.778;9.986;2022-08-21T14:57:14;4.90;;;2.20;;
5587;SDS011;2816;49.778;9.986;2022-08-21T14:59:41;4.13;;;2.53;;
5587;SDS011;2816;49.778;9.986;2022-08-21T15:02:08;3.63;;;2.47;;
5587;SDS011;2816;49.778;9.986;2022-08-21T15:04:37;3.13;;;2.77;;
5587;SDS011;2816;49.778;9.986;2022-08-21T15:07:04;3.50;;;2.73;;
5587;SDS011;2816;49.778;9.986;2022-08-21T15:09:31;3.30;;;2.90;;
5587;SDS011;2816;49.778;9.986;2022-08-21T15:11:58;3.47;;;2.77;;
5587;SDS011;2816;49.778;9.986;2022-08-21T15:14:29;3.57;;;2.53;;
5587;SDS011;2816;49.778;9.986;2022-08-21T15:16:58;2.43;;;2.23;;
5587;SDS011;2816;49.778;9.986;2022-08-21T15:19:25;4.40;;;2.63;;
5587;SDS011;2816;49.778;9.986;2022-08-21T15:21:55;3.10;;;2.70;;
5587;SDS011;2816;49.778;9.986;2022-08-21T15:24:22;5.90;;;2.80;;
5587;SDS011;2816;49.778;9.986;2022-08-21T15:26:49;5.73;;;2.57;;
5587;SDS011;2816;49.778;9.986;2022-08-21T15:29:17;3.20;;;2.70;;
5587;SDS011;2816;49.778;9.986;2022-08-21T15:31:49;3.20;;;2.80;;
5587;SDS011;2816;49.778;9.986;2022-08-21T15:34:18;5.37;;;2.93;;